Forside
METAR-TAF:

METAR-TAF

Lufthavne :

Harbin, Kina

Breddekreds: 45-45N, længdekreds: 126-46E, højde: 143 m

Aktuelle vejr

Denne rapport blev lavet for 1 time og 15 minutter siden, kl. 12:00 UTC
Vind 2 kt fra sydsydvest
Temperatur -12°C
Fugtighed 72%
Tryk 1017 hPa
Sigt 10 km eller mere
ingen skyer under 1500m og ingen cumulonimbus

METAR: ZYHB 191200Z 20001MPS CAVOK M12/M16 Q1017 NOSIG

Tid: 21:15 (13:15 UTC)

Vejrudsigter

Denne rapport blev lavet for 4 timer og 3 minutter siden, kl. 09:12 UTC
Foreløbig gælder fra 19 på 12 UTC til 20 på 12 UTC
Vind 8 kt fra vestsydvest
Sigt: 6000 m
Nogle få skyer i en højde af 3300 ft

TAF: ZYHB 190912Z 1912/2012 24004MPS 6000 FEW033 TXM03/06Z TNM13/22Z

Vejrobservationer og prognoser fra mere end 4000 lufthavne (METAR og TAF).

De gule og røde prikker repræsenterer de meteorologiske stationer.

Flyt musen over at se navnet på stationen.

Så klik over at se vejr observationer og prognoser.

At skifte det kort: Klik på de grønne knapper med et sort kors for at zoome ind; på den grønne knap med en bindestreg for at zoome ud; eller på de grønne pile for tilstødende kort.


METAR-TAF: